sensor_id;sensor_type;location;lat;lon;timestamp;P1;durP1;ratioP1;P2;durP2;ratioP2
10831;SDS011;5469;48.574;8.768;2022-08-05T00:00:25;1.05;;;1.00;;
10831;SDS011;5469;48.574;8.768;2022-08-05T00:02:58;0.90;;;0.90;;
10831;SDS011;5469;48.574;8.768;2022-08-05T00:05:32;0.82;;;0.82;;
10831;SDS011;5469;48.574;8.768;2022-08-05T00:08:06;1.13;;;0.80;;
10831;SDS011;5469;48.574;8.768;2022-08-05T00:10:39;0.98;;;0.90;;
10831;SDS011;5469;48.574;8.768;2022-08-05T00:13:12;1.50;;;1.08;;
10831;SDS011;5469;48.574;8.768;2022-08-05T00:15:45;0.98;;;0.88;;
10831;SDS011;5469;48.574;8.768;2022-08-05T00:18:18;1.30;;;1.20;;
10831;SDS011;5469;48.574;8.768;2022-08-05T00:20:53;1.10;;;1.10;;
10831;SDS011;5469;48.574;8.768;2022-08-05T00:23:26;1.05;;;1.05;;
10831;SDS011;5469;48.574;8.768;2022-08-05T00:25:59;1.55;;;1.05;;
10831;SDS011;5469;48.574;8.768;2022-08-05T00:28:32;1.08;;;1.08;;
10831;SDS011;5469;48.574;8.768;2022-08-05T00:31:05;1.45;;;1.35;;
10831;SDS011;5469;48.574;8.768;2022-08-05T00:33:38;1.15;;;1.05;;
10831;SDS011;5469;48.574;8.768;2022-08-05T00:36:12;1.00;;;0.90;;
10831;SDS011;5469;48.574;8.768;2022-08-05T00:38:46;0.82;;;0.82;;
10831;SDS011;5469;48.574;8.768;2022-08-05T00:41:28;1.05;;;0.98;;
10831;SDS011;5469;48.574;8.768;2022-08-05T00:44:01;0.88;;;0.88;;
10831;SDS011;5469;48.574;8.768;2022-08-05T00:46:34;0.80;;;0.80;;
10831;SDS011;5469;48.574;8.768;2022-08-05T00:49:07;1.05;;;1.02;;
10831;SDS011;5469;48.574;8.768;2022-08-05T00:51:42;1.85;;;1.20;;
10831;SDS011;5469;48.574;8.768;2022-08-05T00:54:15;0.88;;;0.88;;
10831;SDS011;5469;48.574;8.768;2022-08-05T00:56:48;2.05;;;0.80;;
10831;SDS011;5469;48.574;8.768;2022-08-05T00:59:21;1.10;;;0.82;;
10831;SDS011;5469;48.574;8.768;2022-08-05T01:01:54;1.00;;;1.00;;
10831;SDS011;5469;48.574;8.768;2022-08-05T01:04:27;1.00;;;0.95;;
10831;SDS011;5469;48.574;8.768;2022-08-05T01:07:01;0.70;;;0.70;;
10831;SDS011;5469;48.574;8.768;2022-08-05T01:09:34;0.75;;;0.75;;
10831;SDS011;5469;48.574;8.768;2022-08-05T01:12:08;2.72;;;1.05;;
10831;SDS011;5469;48.574;8.768;2022-08-05T01:14:44;1.25;;;1.20;;
10831;SDS011;5469;48.574;8.768;2022-08-05T01:17:22;0.60;;;0.60;;
10831;SDS011;5469;48.574;8.768;2022-08-05T01:20:08;0.80;;;0.80;;
10831;SDS011;5469;48.574;8.768;2022-08-05T01:22:52;0.80;;;0.80;;
10831;SDS011;5469;48.574;8.768;2022-08-05T01:25:34;0.85;;;0.82;;
10831;SDS011;5469;48.574;8.768;2022-08-05T01:28:14;0.80;;;0.80;;
10831;SDS011;5469;48.574;8.768;2022-08-05T01:30:50;0.50;;;0.50;;
10831;SDS011;5469;48.574;8.768;2022-08-05T01:33:25;1.23;;;0.90;;
10831;SDS011;5469;48.574;8.768;2022-08-05T01:36:00;0.73;;;0.73;;
10831;SDS011;5469;48.574;8.768;2022-08-05T01:38:35;1.10;;;0.95;;
10831;SDS011;5469;48.574;8.768;2022-08-05T01:41:08;1.25;;;1.15;;
10831;SDS011;5469;48.574;8.768;2022-08-05T01:43:44;1.13;;;0.88;;
10831;SDS011;5469;48.574;8.768;2022-08-05T01:46:18;0.80;;;0.80;;
10831;SDS011;5469;48.574;8.768;2022-08-05T01:48:52;1.45;;;0.95;;
10831;SDS011;5469;48.574;8.768;2022-08-05T01:51:25;0.82;;;0.82;;
10831;SDS011;5469;48.574;8.768;2022-08-05T01:53:59;1.08;;;0.93;;
10831;SDS011;5469;48.574;8.768;2022-08-05T01:56:35;1.00;;;0.90;;
10831;SDS011;5469;48.574;8.768;2022-08-05T01:59:13;0.70;;;0.70;;
10831;SDS011;5469;48.574;8.768;2022-08-05T02:01:47;0.85;;;0.85;;
10831;SDS011;5469;48.574;8.768;2022-08-05T02:04:21;1.30;;;1.02;;
10831;SDS011;5469;48.574;8.768;2022-08-05T02:06:55;1.08;;;1.00;;
10831;SDS011;5469;48.574;8.768;2022-08-05T02:09:29;1.00;;;1.00;;
10831;SDS011;5469;48.574;8.768;2022-08-05T02:12:04;1.23;;;1.13;;
10831;SDS011;5469;48.574;8.768;2022-08-05T02:14:42;0.85;;;0.82;;
10831;SDS011;5469;48.574;8.768;2022-08-05T02:17:16;1.10;;;1.05;;
10831;SDS011;5469;48.574;8.768;2022-08-05T02:19:52;0.93;;;0.80;;
10831;SDS011;5469;48.574;8.768;2022-08-05T02:22:27;0.70;;;0.70;;
10831;SDS011;5469;48.574;8.768;2022-08-05T02:25:03;1.10;;;1.00;;
10831;SDS011;5469;48.574;8.768;2022-08-05T02:27:37;1.05;;;1.05;;
10831;SDS011;5469;48.574;8.768;2022-08-05T02:30:13;1.30;;;1.08;;
10831;SDS011;5469;48.574;8.768;2022-08-05T02:32:47;1.67;;;1.13;;
10831;SDS011;5469;48.574;8.768;2022-08-05T02:35:23;1.00;;;0.85;;
10831;SDS011;5469;48.574;8.768;2022-08-05T02:37:56;1.23;;;1.13;;
10831;SDS011;5469;48.574;8.768;2022-08-05T02:40:30;1.35;;;1.20;;
10831;SDS011;5469;48.574;8.768;2022-08-05T02:43:03;1.13;;;1.02;;
10831;SDS011;5469;48.574;8.768;2022-08-05T02:45:38;1.90;;;1.00;;
10831;SDS011;5469;48.574;8.768;2022-08-05T02:48:12;1.20;;;1.10;;
10831;SDS011;5469;48.574;8.768;2022-08-05T02:50:45;1.15;;;1.05;;
10831;SDS011;5469;48.574;8.768;2022-08-05T02:53:20;1.52;;;1.00;;
10831;SDS011;5469;48.574;8.768;2022-08-05T02:55:54;1.25;;;1.05;;
10831;SDS011;5469;48.574;8.768;2022-08-05T02:58:28;2.45;;;1.33;;
10831;SDS011;5469;48.574;8.768;2022-08-05T03:01:03;1.35;;;1.08;;
10831;SDS011;5469;48.574;8.768;2022-08-05T03:03:37;1.20;;;1.08;;
10831;SDS011;5469;48.574;8.768;2022-08-05T03:06:11;0.90;;;0.80;;
10831;SDS011;5469;48.574;8.768;2022-08-05T03:08:44;1.35;;;0.90;;
10831;SDS011;5469;48.574;8.768;2022-08-05T03:11:18;1.23;;;1.10;;
10831;SDS011;5469;48.574;8.768;2022-08-05T03:13:51;1.05;;;0.98;;
10831;SDS011;5469;48.574;8.768;2022-08-05T03:16:26;1.20;;;1.10;;
10831;SDS011;5469;48.574;8.768;2022-08-05T03:18:59;3.03;;;1.10;;
10831;SDS011;5469;48.574;8.768;2022-08-05T03:21:32;0.93;;;0.93;;
10831;SDS011;5469;48.574;8.768;2022-08-05T03:24:05;1.63;;;1.05;;
10831;SDS011;5469;48.574;8.768;2022-08-05T03:26:38;1.00;;;0.90;;
10831;SDS011;5469;48.574;8.768;2022-08-05T03:29:11;1.00;;;1.00;;
10831;SDS011;5469;48.574;8.768;2022-08-05T03:31:46;1.33;;;1.00;;
10831;SDS011;5469;48.574;8.768;2022-08-05T03:34:19;1.13;;;1.02;;
10831;SDS011;5469;48.574;8.768;2022-08-05T03:36:52;2.08;;;1.02;;
10831;SDS011;5469;48.574;8.768;2022-08-05T03:39:25;1.30;;;1.20;;
10831;SDS011;5469;48.574;8.768;2022-08-05T03:41:58;1.50;;;0.90;;
10831;SDS011;5469;48.574;8.768;2022-08-05T03:44:31;1.40;;;1.30;;
10831;SDS011;5469;48.574;8.768;2022-08-05T03:47:05;1.20;;;1.10;;
10831;SDS011;5469;48.574;8.768;2022-08-05T03:49:38;2.63;;;1.63;;
10831;SDS011;5469;48.574;8.768;2022-08-05T03:52:12;3.15;;;1.30;;
10831;SDS011;5469;48.574;8.768;2022-08-05T03:54:49;1.13;;;1.10;;
10831;SDS011;5469;48.574;8.768;2022-08-05T03:57:25;1.73;;;1.25;;
10831;SDS011;5469;48.574;8.768;2022-08-05T04:00:03;1.40;;;1.30;;
10831;SDS011;5469;48.574;8.768;2022-08-05T04:02:37;1.08;;;1.05;;
10831;SDS011;5469;48.574;8.768;2022-08-05T04:05:12;1.10;;;1.00;;
10831;SDS011;5469;48.574;8.768;2022-08-05T04:07:45;2.05;;;1.10;;
10831;SDS011;5469;48.574;8.768;2022-08-05T04:10:19;1.10;;;1.05;;
10831;SDS011;5469;48.574;8.768;2022-08-05T04:12:52;1.27;;;1.17;;
10831;SDS011;5469;48.574;8.768;2022-08-05T04:15:25;1.27;;;1.17;;
10831;SDS011;5469;48.574;8.768;2022-08-05T04:18:00;1.20;;;1.10;;
10831;SDS011;5469;48.574;8.768;2022-08-05T04:20:33;4.53;;;1.33;;
10831;SDS011;5469;48.574;8.768;2022-08-05T04:23:06;1.17;;;1.08;;
10831;SDS011;5469;48.574;8.768;2022-08-05T04:25:40;1.40;;;1.30;;
10831;SDS011;5469;48.574;8.768;2022-08-05T04:28:13;1.38;;;1.27;;
10831;SDS011;5469;48.574;8.768;2022-08-05T04:30:46;1.60;;;1.42;;
10831;SDS011;5469;48.574;8.768;2022-08-05T04:33:20;1.35;;;1.05;;
10831;SDS011;5469;48.574;8.768;2022-08-05T04:35:53;1.98;;;1.33;;
10831;SDS011;5469;48.574;8.768;2022-08-05T04:38:27;4.40;;;1.40;;
10831;SDS011;5469;48.574;8.768;2022-08-05T04:41:00;1.98;;;1.30;;
10831;SDS011;5469;48.574;8.768;2022-08-05T04:43:33;1.33;;;1.23;;
10831;SDS011;5469;48.574;8.768;2022-08-05T04:46:06;1.67;;;1.20;;
10831;SDS011;5469;48.574;8.768;2022-08-05T04:48:41;1.65;;;1.55;;
10831;SDS011;5469;48.574;8.768;2022-08-05T04:51:14;1.75;;;1.33;;
10831;SDS011;5469;48.574;8.768;2022-08-05T04:53:48;1.52;;;1.42;;
10831;SDS011;5469;48.574;8.768;2022-08-05T04:56:21;3.28;;;1.30;;
10831;SDS011;5469;48.574;8.768;2022-08-05T04:58:54;2.55;;;1.23;;
10831;SDS011;5469;48.574;8.768;2022-08-05T05:01:26;1.48;;;1.38;;
10831;SDS011;5469;48.574;8.768;2022-08-05T05:04:01;1.50;;;1.40;;
10831;SDS011;5469;48.574;8.768;2022-08-05T05:06:34;1.50;;;1.40;;
10831;SDS011;5469;48.574;8.768;2022-08-05T05:09:07;1.40;;;1.30;;
10831;SDS011;5469;48.574;8.768;2022-08-05T05:11:40;1.05;;;0.98;;
10831;SDS011;5469;48.574;8.768;2022-08-05T05:14:13;2.33;;;1.35;;
10831;SDS011;5469;48.574;8.768;2022-08-05T05:16:46;1.48;;;1.20;;
10831;SDS011;5469;48.574;8.768;2022-08-05T05:19:20;1.65;;;1.08;;
10831;SDS011;5469;48.574;8.768;2022-08-05T05:21:53;4.43;;;1.85;;
10831;SDS011;5469;48.574;8.768;2022-08-05T05:24:26;1.85;;;1.13;;
10831;SDS011;5469;48.574;8.768;2022-08-05T05:26:59;2.60;;;1.50;;
10831;SDS011;5469;48.574;8.768;2022-08-05T05:29:32;1.08;;;1.08;;
10831;SDS011;5469;48.574;8.768;2022-08-05T05:32:05;2.08;;;1.60;;
10831;SDS011;5469;48.574;8.768;2022-08-05T05:34:39;1.85;;;1.75;;
10831;SDS011;5469;48.574;8.768;2022-08-05T05:37:12;2.33;;;1.20;;
10831;SDS011;5469;48.574;8.768;2022-08-05T05:39:45;2.00;;;1.30;;
10831;SDS011;5469;48.574;8.768;2022-08-05T05:42:18;1.60;;;1.50;;
10831;SDS011;5469;48.574;8.768;2022-08-05T05:44:51;1.30;;;1.20;;
10831;SDS011;5469;48.574;8.768;2022-08-05T05:47:24;2.40;;;1.50;;
10831;SDS011;5469;48.574;8.768;2022-08-05T05:49:58;1.55;;;1.38;;
10831;SDS011;5469;48.574;8.768;2022-08-05T05:52:31;2.20;;;1.25;;
10831;SDS011;5469;48.574;8.768;2022-08-05T05:55:05;1.33;;;1.00;;
10831;SDS011;5469;48.574;8.768;2022-08-05T05:57:40;1.58;;;1.38;;
10831;SDS011;5469;48.574;8.768;2022-08-05T06:00:15;3.08;;;1.13;;
10831;SDS011;5469;48.574;8.768;2022-08-05T06:02:48;1.13;;;1.13;;
10831;SDS011;5469;48.574;8.768;2022-08-05T06:05:23;2.25;;;1.33;;
10831;SDS011;5469;48.574;8.768;2022-08-05T06:07:56;1.35;;;1.20;;
10831;SDS011;5469;48.574;8.768;2022-08-05T06:10:29;1.77;;;1.58;;
10831;SDS011;5469;48.574;8.768;2022-08-05T06:13:02;1.13;;;1.02;;
10831;SDS011;5469;48.574;8.768;2022-08-05T06:15:35;1.13;;;1.13;;
10831;SDS011;5469;48.574;8.768;2022-08-05T06:18:08;1.63;;;1.50;;
10831;SDS011;5469;48.574;8.768;2022-08-05T06:20:42;1.55;;;1.38;;
10831;SDS011;5469;48.574;8.768;2022-08-05T06:23:15;1.60;;;1.23;;
10831;SDS011;5469;48.574;8.768;2022-08-05T06:25:48;1.33;;;1.23;;
10831;SDS011;5469;48.574;8.768;2022-08-05T06:28:21;1.48;;;1.35;;
10831;SDS011;5469;48.574;8.768;2022-08-05T06:30:54;1.67;;;1.20;;
10831;SDS011;5469;48.574;8.768;2022-08-05T06:33:27;1.50;;;1.23;;
10831;SDS011;5469;48.574;8.768;2022-08-05T06:36:02;1.30;;;1.25;;
10831;SDS011;5469;48.574;8.768;2022-08-05T06:38:35;1.23;;;1.13;;
10831;SDS011;5469;48.574;8.768;2022-08-05T06:41:07;1.83;;;1.02;;
10831;SDS011;5469;48.574;8.768;2022-08-05T06:43:40;1.40;;;1.02;;
10831;SDS011;5469;48.574;8.768;2022-08-05T06:46:13;1.27;;;1.17;;
10831;SDS011;5469;48.574;8.768;2022-08-05T06:48:46;0.90;;;0.90;;
10831;SDS011;5469;48.574;8.768;2022-08-05T06:51:21;1.10;;;0.98;;
10831;SDS011;5469;48.574;8.768;2022-08-05T06:53:53;1.40;;;1.05;;
10831;SDS011;5469;48.574;8.768;2022-08-05T06:56:27;2.03;;;1.40;;
10831;SDS011;5469;48.574;8.768;2022-08-05T06:59:00;0.90;;;0.90;;
10831;SDS011;5469;48.574;8.768;2022-08-05T07:01:33;1.20;;;1.10;;
10831;SDS011;5469;48.574;8.768;2022-08-05T07:04:06;0.57;;;0.57;;
10831;SDS011;5469;48.574;8.768;2022-08-05T07:06:40;1.38;;;1.02;;
10831;SDS011;5469;48.574;8.768;2022-08-05T07:09:13;1.58;;;1.15;;
10831;SDS011;5469;48.574;8.768;2022-08-05T07:11:46;1.08;;;0.98;;
10831;SDS011;5469;48.574;8.768;2022-08-05T07:14:19;1.50;;;0.85;;
10831;SDS011;5469;48.574;8.768;2022-08-05T07:17:09;2.10;;;0.90;;
10831;SDS011;5469;48.574;8.768;2022-08-05T07:19:42;0.70;;;0.70;;
10831;SDS011;5469;48.574;8.768;2022-08-05T07:22:16;1.10;;;1.00;;
10831;SDS011;5469;48.574;8.768;2022-08-05T07:24:52;1.13;;;0.70;;
10831;SDS011;5469;48.574;8.768;2022-08-05T07:27:25;3.50;;;0.95;;
10831;SDS011;5469;48.574;8.768;2022-08-05T07:29:58;1.13;;;0.90;;
10831;SDS011;5469;48.574;8.768;2022-08-05T07:32:33;0.60;;;0.60;;
10831;SDS011;5469;48.574;8.768;2022-08-05T07:35:06;1.08;;;0.73;;
10831;SDS011;5469;48.574;8.768;2022-08-05T07:37:41;2.97;;;0.85;;
10831;SDS011;5469;48.574;8.768;2022-08-05T07:40:14;1.85;;;0.70;;
10831;SDS011;5469;48.574;8.768;2022-08-05T07:42:47;0.60;;;0.60;;
10831;SDS011;5469;48.574;8.768;2022-08-05T07:45:20;0.73;;;0.70;;
10831;SDS011;5469;48.574;8.768;2022-08-05T07:47:53;1.10;;;1.00;;
10831;SDS011;5469;48.574;8.768;2022-08-05T07:50:26;0.60;;;0.60;;
10831;SDS011;5469;48.574;8.768;2022-08-05T07:53:00;1.00;;;0.90;;
10831;SDS011;5469;48.574;8.768;2022-08-05T07:55:33;0.85;;;0.60;;
10831;SDS011;5469;48.574;8.768;2022-08-05T07:58:06;0.70;;;0.70;;
10831;SDS011;5469;48.574;8.768;2022-08-05T08:00:38;0.70;;;0.70;;
10831;SDS011;5469;48.574;8.768;2022-08-05T08:03:12;0.80;;;0.75;;
10831;SDS011;5469;48.574;8.768;2022-08-05T08:05:45;1.25;;;0.68;;
10831;SDS011;5469;48.574;8.768;2022-08-05T08:08:23;0.82;;;0.82;;
10831;SDS011;5469;48.574;8.768;2022-08-05T08:10:55;0.63;;;0.63;;
10831;SDS011;5469;48.574;8.768;2022-08-05T08:13:28;0.73;;;0.70;;
10831;SDS011;5469;48.574;8.768;2022-08-05T08:16:02;1.00;;;0.88;;
10831;SDS011;5469;48.574;8.768;2022-08-05T08:18:35;1.27;;;1.10;;
10831;SDS011;5469;48.574;8.768;2022-08-05T08:21:08;0.85;;;0.85;;
10831;SDS011;5469;48.574;8.768;2022-08-05T08:23:42;0.68;;;0.68;;
10831;SDS011;5469;48.574;8.768;2022-08-05T08:26:15;1.10;;;0.82;;
10831;SDS011;5469;48.574;8.768;2022-08-05T08:28:48;0.63;;;0.63;;
10831;SDS011;5469;48.574;8.768;2022-08-05T08:31:21;0.82;;;0.70;;
10831;SDS011;5469;48.574;8.768;2022-08-05T08:33:54;0.55;;;0.55;;
10831;SDS011;5469;48.574;8.768;2022-08-05T08:36:27;0.85;;;0.82;;
10831;SDS011;5469;48.574;8.768;2022-08-05T08:39:01;1.90;;;0.70;;
10831;SDS011;5469;48.574;8.768;2022-08-05T08:41:34;1.10;;;1.00;;
10831;SDS011;5469;48.574;8.768;2022-08-05T08:44:09;1.02;;;0.68;;
10831;SDS011;5469;48.574;8.768;2022-08-05T08:46:43;0.60;;;0.57;;
10831;SDS011;5469;48.574;8.768;2022-08-05T08:49:17;0.70;;;0.70;;
10831;SDS011;5469;48.574;8.768;2022-08-05T08:51:53;0.70;;;0.70;;
10831;SDS011;5469;48.574;8.768;2022-08-05T08:54:31;0.60;;;0.60;;
10831;SDS011;5469;48.574;8.768;2022-08-05T08:57:04;0.95;;;0.80;;
10831;SDS011;5469;48.574;8.768;2022-08-05T08:59:38;3.15;;;1.00;;
10831;SDS011;5469;48.574;8.768;2022-08-05T09:02:11;1.23;;;1.13;;
10831;SDS011;5469;48.574;8.768;2022-08-05T09:04:45;0.75;;;0.73;;
10831;SDS011;5469;48.574;8.768;2022-08-05T09:07:18;0.70;;;0.70;;
10831;SDS011;5469;48.574;8.768;2022-08-05T09:09:52;3.22;;;0.80;;
10831;SDS011;5469;48.574;8.768;2022-08-05T09:12:25;1.90;;;0.88;;
10831;SDS011;5469;48.574;8.768;2022-08-05T09:14:59;1.55;;;1.10;;
10831;SDS011;5469;48.574;8.768;2022-08-05T09:17:33;1.00;;;0.90;;
10831;SDS011;5469;48.574;8.768;2022-08-05T09:20:06;3.83;;;0.73;;
10831;SDS011;5469;48.574;8.768;2022-08-05T09:25:32;0.80;;;0.80;;
10831;SDS011;5469;48.574;8.768;2022-08-05T09:28:12;0.80;;;0.80;;
10831;SDS011;5469;48.574;8.768;2022-08-05T09:30:52;0.60;;;0.60;;
10831;SDS011;5469;48.574;8.768;2022-08-05T09:33:26;0.80;;;0.70;;
10831;SDS011;5469;48.574;8.768;2022-08-05T09:35:59;1.88;;;0.73;;
10831;SDS011;5469;48.574;8.768;2022-08-05T09:38:32;0.90;;;0.90;;
10831;SDS011;5469;48.574;8.768;2022-08-05T09:41:07;0.77;;;0.73;;
10831;SDS011;5469;48.574;8.768;2022-08-05T09:43:40;0.50;;;0.50;;
10831;SDS011;5469;48.574;8.768;2022-08-05T09:46:22;0.88;;;0.88;;
10831;SDS011;5469;48.574;8.768;2022-08-05T09:48:56;0.75;;;0.70;;
10831;SDS011;5469;48.574;8.768;2022-08-05T09:51:30;1.50;;;0.80;;
10831;SDS011;5469;48.574;8.768;2022-08-05T09:54:03;0.90;;;0.90;;
10831;SDS011;5469;48.574;8.768;2022-08-05T09:56:41;0.75;;;0.68;;
10831;SDS011;5469;48.574;8.768;2022-08-05T09:59:16;1.20;;;0.90;;
10831;SDS011;5469;48.574;8.768;2022-08-05T10:01:49;0.68;;;0.60;;
10831;SDS011;5469;48.574;8.768;2022-08-05T10:04:30;0.77;;;0.77;;
10831;SDS011;5469;48.574;8.768;2022-08-05T10:07:05;0.65;;;0.65;;
10831;SDS011;5469;48.574;8.768;2022-08-05T10:09:40;1.20;;;0.90;;
10831;SDS011;5469;48.574;8.768;2022-08-05T10:12:26;0.82;;;0.82;;
10831;SDS011;5469;48.574;8.768;2022-08-05T10:15:11;0.70;;;0.70;;
10831;SDS011;5469;48.574;8.768;2022-08-05T10:17:46;0.70;;;0.70;;
10831;SDS011;5469;48.574;8.768;2022-08-05T10:20:35;0.75;;;0.75;;
10831;SDS011;5469;48.574;8.768;2022-08-05T10:23:09;0.47;;;0.47;;
10831;SDS011;5469;48.574;8.768;2022-08-05T10:25:42;0.57;;;0.57;;
10831;SDS011;5469;48.574;8.768;2022-08-05T10:28:16;0.60;;;0.60;;
10831;SDS011;5469;48.574;8.768;2022-08-05T10:30:50;1.42;;;0.80;;
10831;SDS011;5469;48.574;8.768;2022-08-05T10:33:24;0.70;;;0.70;;
10831;SDS011;5469;48.574;8.768;2022-08-05T10:35:58;0.80;;;0.75;;
10831;SDS011;5469;48.574;8.768;2022-08-05T10:38:31;1.00;;;0.80;;
10831;SDS011;5469;48.574;8.768;2022-08-05T10:41:06;0.70;;;0.70;;
10831;SDS011;5469;48.574;8.768;2022-08-05T10:43:46;0.65;;;0.65;;
10831;SDS011;5469;48.574;8.768;2022-08-05T10:46:19;0.65;;;0.65;;
10831;SDS011;5469;48.574;8.768;2022-08-05T10:48:54;0.82;;;0.80;;
10831;SDS011;5469;48.574;8.768;2022-08-05T10:51:27;1.08;;;0.98;;
10831;SDS011;5469;48.574;8.768;2022-08-05T10:54:13;0.45;;;0.45;;
10831;SDS011;5469;48.574;8.768;2022-08-05T10:56:47;0.57;;;0.57;;
10831;SDS011;5469;48.574;8.768;2022-08-05T10:59:25;0.70;;;0.70;;
10831;SDS011;5469;48.574;8.768;2022-08-05T11:02:05;0.70;;;0.60;;
10831;SDS011;5469;48.574;8.768;2022-08-05T11:04:41;0.80;;;0.80;;
10831;SDS011;5469;48.574;8.768;2022-08-05T11:07:14;0.73;;;0.73;;
10831;SDS011;5469;48.574;8.768;2022-08-05T11:09:49;0.90;;;0.73;;
10831;SDS011;5469;48.574;8.768;2022-08-05T11:15:18;0.50;;;0.50;;
10831;SDS011;5469;48.574;8.768;2022-08-05T11:17:51;0.60;;;0.60;;
10831;SDS011;5469;48.574;8.768;2022-08-05T11:23:28;0.90;;;0.75;;
10831;SDS011;5469;48.574;8.768;2022-08-05T11:26:02;1.70;;;0.95;;
10831;SDS011;5469;48.574;8.768;2022-08-05T11:28:44;0.40;;;0.40;;
10831;SDS011;5469;48.574;8.768;2022-08-05T11:31:23;1.10;;;0.65;;
10831;SDS011;5469;48.574;8.768;2022-08-05T11:34:04;1.02;;;0.85;;
10831;SDS011;5469;48.574;8.768;2022-08-05T11:36:44;1.30;;;0.77;;
10831;SDS011;5469;48.574;8.768;2022-08-05T11:42:10;0.55;;;0.55;;
10831;SDS011;5469;48.574;8.768;2022-08-05T11:44:43;0.57;;;0.57;;
10831;SDS011;5469;48.574;8.768;2022-08-05T11:47:21;0.65;;;0.65;;
10831;SDS011;5469;48.574;8.768;2022-08-05T11:49:55;0.55;;;0.55;;
10831;SDS011;5469;48.574;8.768;2022-08-05T11:52:28;3.80;;;1.00;;
10831;SDS011;5469;48.574;8.768;2022-08-05T11:55:03;0.68;;;0.65;;
10831;SDS011;5469;48.574;8.768;2022-08-05T11:57:36;0.75;;;0.75;;
10831;SDS011;5469;48.574;8.768;2022-08-05T12:00:23;0.60;;;0.60;;
10831;SDS011;5469;48.574;8.768;2022-08-05T12:03:02;1.67;;;0.63;;
10831;SDS011;5469;48.574;8.768;2022-08-05T12:05:46;0.55;;;0.55;;
10831;SDS011;5469;48.574;8.768;2022-08-05T12:08:19;0.73;;;0.73;;
10831;SDS011;5469;48.574;8.768;2022-08-05T12:10:52;0.60;;;0.60;;
10831;SDS011;5469;48.574;8.768;2022-08-05T12:13:25;0.80;;;0.80;;
10831;SDS011;5469;48.574;8.768;2022-08-05T12:15:58;0.60;;;0.60;;
10831;SDS011;5469;48.574;8.768;2022-08-05T12:18:33;0.50;;;0.50;;
10831;SDS011;5469;48.574;8.768;2022-08-05T12:21:10;0.43;;;0.43;;
10831;SDS011;5469;48.574;8.768;2022-08-05T12:23:59;0.85;;;0.82;;
10831;SDS011;5469;48.574;8.768;2022-08-05T12:26:33;1.00;;;0.90;;
10831;SDS011;5469;48.574;8.768;2022-08-05T12:29:06;0.60;;;0.60;;
10831;SDS011;5469;48.574;8.768;2022-08-05T12:31:39;0.75;;;0.75;;
10831;SDS011;5469;48.574;8.768;2022-08-05T12:34:14;0.80;;;0.80;;
10831;SDS011;5469;48.574;8.768;2022-08-05T12:36:48;0.70;;;0.70;;
10831;SDS011;5469;48.574;8.768;2022-08-05T12:39:22;0.80;;;0.80;;
10831;SDS011;5469;48.574;8.768;2022-08-05T12:41:56;0.77;;;0.70;;
10831;SDS011;5469;48.574;8.768;2022-08-05T12:44:29;0.50;;;0.50;;
10831;SDS011;5469;48.574;8.768;2022-08-05T12:47:04;1.50;;;0.77;;
10831;SDS011;5469;48.574;8.768;2022-08-05T12:49:39;0.68;;;0.68;;
10831;SDS011;5469;48.574;8.768;2022-08-05T12:52:12;0.75;;;0.75;;
10831;SDS011;5469;48.574;8.768;2022-08-05T12:54:46;0.63;;;0.63;;
10831;SDS011;5469;48.574;8.768;2022-08-05T12:57:21;0.55;;;0.55;;
10831;SDS011;5469;48.574;8.768;2022-08-05T12:59:54;0.50;;;0.50;;
10831;SDS011;5469;48.574;8.768;2022-08-05T13:02:27;0.60;;;0.60;;
10831;SDS011;5469;48.574;8.768;2022-08-05T13:05:04;0.60;;;0.60;;
10831;SDS011;5469;48.574;8.768;2022-08-05T13:07:38;0.80;;;0.80;;
10831;SDS011;5469;48.574;8.768;2022-08-05T13:10:11;0.98;;;0.70;;
10831;SDS011;5469;48.574;8.768;2022-08-05T13:12:45;0.68;;;0.60;;
10831;SDS011;5469;48.574;8.768;2022-08-05T13:15:17;1.00;;;0.90;;
10831;SDS011;5469;48.574;8.768;2022-08-05T13:17:52;1.15;;;1.05;;
10831;SDS011;5469;48.574;8.768;2022-08-05T13:20:33;1.08;;;0.98;;
10831;SDS011;5469;48.574;8.768;2022-08-05T13:23:06;1.40;;;0.88;;
10831;SDS011;5469;48.574;8.768;2022-08-05T13:25:39;0.60;;;0.60;;
10831;SDS011;5469;48.574;8.768;2022-08-05T13:28:12;0.52;;;0.50;;
10831;SDS011;5469;48.574;8.768;2022-08-05T13:30:45;0.93;;;0.93;;
10831;SDS011;5469;48.574;8.768;2022-08-05T13:33:18;0.65;;;0.60;;
10831;SDS011;5469;48.574;8.768;2022-08-05T13:35:52;0.65;;;0.60;;
10831;SDS011;5469;48.574;8.768;2022-08-05T13:38:26;1.10;;;0.98;;
10831;SDS011;5469;48.574;8.768;2022-08-05T13:40:59;0.93;;;0.85;;
10831;SDS011;5469;48.574;8.768;2022-08-05T13:43:32;0.82;;;0.82;;
10831;SDS011;5469;48.574;8.768;2022-08-05T13:46:05;1.10;;;1.00;;
10831;SDS011;5469;48.574;8.768;2022-08-05T13:48:39;0.85;;;0.85;;
10831;SDS011;5469;48.574;8.768;2022-08-05T13:51:13;1.00;;;0.93;;
10831;SDS011;5469;48.574;8.768;2022-08-05T13:53:46;1.65;;;1.02;;
10831;SDS011;5469;48.574;8.768;2022-08-05T13:56:19;1.20;;;1.05;;
10831;SDS011;5469;48.574;8.768;2022-08-05T13:58:52;1.60;;;1.10;;
10831;SDS011;5469;48.574;8.768;2022-08-05T14:01:25;0.80;;;0.80;;
10831;SDS011;5469;48.574;8.768;2022-08-05T14:03:58;1.02;;;0.90;;
10831;SDS011;5469;48.574;8.768;2022-08-05T14:06:49;1.42;;;0.75;;
10831;SDS011;5469;48.574;8.768;2022-08-05T14:09:22;1.58;;;1.00;;
10831;SDS011;5469;48.574;8.768;2022-08-05T14:11:55;0.80;;;0.70;;
10831;SDS011;5469;48.574;8.768;2022-08-05T14:14:28;0.80;;;0.80;;
10831;SDS011;5469;48.574;8.768;2022-08-05T14:17:01;1.08;;;0.80;;
10831;SDS011;5469;48.574;8.768;2022-08-05T14:19:34;0.77;;;0.77;;
10831;SDS011;5469;48.574;8.768;2022-08-05T14:22:09;0.93;;;0.90;;
10831;SDS011;5469;48.574;8.768;2022-08-05T14:24:42;1.80;;;1.02;;
10831;SDS011;5469;48.574;8.768;2022-08-05T14:27:15;0.90;;;0.90;;
10831;SDS011;5469;48.574;8.768;2022-08-05T14:29:48;0.70;;;0.70;;
10831;SDS011;5469;48.574;8.768;2022-08-05T14:32:21;0.98;;;0.98;;
10831;SDS011;5469;48.574;8.768;2022-08-05T14:34:54;0.98;;;0.93;;
10831;SDS011;5469;48.574;8.768;2022-08-05T14:37:28;0.85;;;0.82;;
10831;SDS011;5469;48.574;8.768;2022-08-05T14:40:01;0.85;;;0.77;;
10831;SDS011;5469;48.574;8.768;2022-08-05T14:42:34;0.80;;;0.80;;
10831;SDS011;5469;48.574;8.768;2022-08-05T14:45:07;2.28;;;0.50;;
10831;SDS011;5469;48.574;8.768;2022-08-05T14:47:41;2.05;;;0.88;;
10831;SDS011;5469;48.574;8.768;2022-08-05T14:50:14;1.33;;;0.85;;
10831;SDS011;5469;48.574;8.768;2022-08-05T14:52:48;1.27;;;1.08;;
10831;SDS011;5469;48.574;8.768;2022-08-05T14:55:21;1.20;;;1.10;;
10831;SDS011;5469;48.574;8.768;2022-08-05T14:57:54;0.70;;;0.70;;
10831;SDS011;5469;48.574;8.768;2022-08-05T15:00:28;1.35;;;0.80;;
10831;SDS011;5469;48.574;8.768;2022-08-05T15:03:00;0.60;;;0.60;;
10831;SDS011;5469;48.574;8.768;2022-08-05T15:05:34;0.98;;;0.85;;
10831;SDS011;5469;48.574;8.768;2022-08-05T15:08:08;1.05;;;0.88;;
10831;SDS011;5469;48.574;8.768;2022-08-05T15:10:41;2.42;;;0.90;;
10831;SDS011;5469;48.574;8.768;2022-08-05T15:13:14;1.15;;;0.93;;
10831;SDS011;5469;48.574;8.768;2022-08-05T15:15:47;0.98;;;0.80;;
10831;SDS011;5469;48.574;8.768;2022-08-05T15:18:20;0.52;;;0.52;;
10831;SDS011;5469;48.574;8.768;2022-08-05T15:20:53;1.75;;;0.85;;
10831;SDS011;5469;48.574;8.768;2022-08-05T15:23:27;0.88;;;0.88;;
10831;SDS011;5469;48.574;8.768;2022-08-05T15:26:00;0.98;;;0.85;;
10831;SDS011;5469;48.574;8.768;2022-08-05T15:28:33;0.70;;;0.70;;
10831;SDS011;5469;48.574;8.768;2022-08-05T15:31:06;0.50;;;0.50;;
10831;SDS011;5469;48.574;8.768;2022-08-05T15:33:39;0.70;;;0.70;;
10831;SDS011;5469;48.574;8.768;2022-08-05T15:36:12;1.05;;;0.93;;
10831;SDS011;5469;48.574;8.768;2022-08-05T15:38:46;0.90;;;0.90;;
10831;SDS011;5469;48.574;8.768;2022-08-05T15:41:19;1.15;;;0.82;;
10831;SDS011;5469;48.574;8.768;2022-08-05T15:43:53;0.82;;;0.70;;
10831;SDS011;5469;48.574;8.768;2022-08-05T15:46:26;1.85;;;0.82;;
10831;SDS011;5469;48.574;8.768;2022-08-05T15:48:59;1.13;;;0.80;;
10831;SDS011;5469;48.574;8.768;2022-08-05T15:51:32;0.75;;;0.70;;
10831;SDS011;5469;48.574;8.768;2022-08-05T15:54:06;0.80;;;0.80;;